Time;durP1;ratioP1;P1;durP2;ratioP2;P2;SDS_P1;SDS_P2;PMS_P1;PMS_P2;Temp;Humidity;BMP_temperature;BMP_pressure;BME280_temperature;BME280_humidity;BME280_pressure;Samples;Min_cycle;Max_cycle;Signal;HPM_P1;HPM_P2
2022/01/25 00:09:05;;;;;;;84.28;32.55;;;;;;;0.38;70.24;100666.03;5200936;28;20053;-82
2022/01/25 00:27:26;;;;;;;61.80;26.88;;;;;;;0.20;70.02;100684.78;5182495;28;20039;-83
2022/01/25 00:30:29;;;;;;;72.80;28.58;;;;;;;0.31;70.18;100674.91;5187728;28;20426;-80
2022/01/25 00:33:19;;;;;;;61.13;26.80;;;;;;;0.29;70.52;100688.88;5195964;28;20053;-81
2022/01/25 00:36:13;;;;;;;73.68;27.63;;;;;;;0.23;69.68;100690.78;5191024;28;20044;-81
2022/01/25 00:39:04;;;;;;;64.07;27.52;;;;;;;0.19;70.09;100688.25;5191116;28;20057;-81
2022/01/25 00:41:55;;;;;;;61.53;26.95;;;;;;;0.16;69.79;100680.50;5204584;28;20142;-81
2022/01/25 00:44:48;;;;;;;66.28;26.52;;;;;;;0.12;69.77;100686.69;5203966;28;20052;-81
2022/01/25 00:47:41;;;;;;;55.67;25.63;;;;;;;0.09;70.94;100664.13;5193547;28;20056;-81
2022/01/25 00:50:37;;;;;;;51.92;23.38;;;;;;;0.20;70.22;100675.19;5203663;28;20053;-82
2022/01/25 00:56:43;;;;;;;51.10;23.52;;;;;;;0.32;70.54;100684.44;5203594;28;20076;-80
2022/01/25 00:59:33;;;;;;;51.20;23.70;;;;;;;0.25;70.71;100695.94;5198472;28;20542;-82
2022/01/25 01:02:24;;;;;;;45.85;22.60;;;;;;;-0.06;70.37;100661.91;5189826;28;20120;-81
2022/01/25 01:05:14;;;;;;;43.90;21.25;;;;;;;-0.12;70.12;100665.50;5199104;28;20056;-81
2022/01/25 01:08:05;;;;;;;45.55;21.05;;;;;;;-0.10;69.65;100670.69;5189575;28;20064;-79
2022/01/25 01:10:58;;;;;;;43.63;20.83;;;;;;;-0.02;70.11;100679.19;5203405;28;20058;-83
2022/01/25 01:14:01;;;;;;;43.22;20.50;;;;;;;-0.14;69.49;100669.91;5189976;28;20056;-80
2022/01/25 01:29:43;;;;;;;39.20;19.52;;;;;;;-0.19;69.96;100666.56;5199067;28;20056;-81
2022/01/25 01:41:31;;;;;;;41.58;20.25;;;;;;;0.03;69.98;100681.69;5205485;28;20427;-81
2022/01/25 01:44:24;;;;;;;38.28;19.30;;;;;;;-0.11;70.08;100692.44;5204096;28;20045;-81
2022/01/25 01:47:23;;;;;;;40.70;19.10;;;;;;;-0.10;70.32;100679.38;5200662;28;20085;-81
2022/01/25 01:50:26;;;;;;;39.85;19.65;;;;;;;0.04;70.23;100692.09;5205097;28;20126;-84
2022/01/25 01:53:16;;;;;;;45.53;21.38;;;;;;;-0.04;70.78;100681.81;5201159;28;20049;-80
2022/01/25 01:56:06;;;;;;;47.53;23.52;;;;;;;0.17;70.84;100690.91;5203184;28;20041;-79
2022/01/25 01:58:59;;;;;;;48.30;23.13;;;;;;;0.21;71.13;100676.03;5188573;28;20048;-80
2022/01/25 02:01:49;;;;;;;47.42;23.27;;;;;;;0.17;71.26;100684.84;5199371;28;20664;-81
2022/01/25 02:04:40;;;;;;;50.08;22.60;;;;;;;0.08;71.28;100675.47;5174023;28;20228;-81
2022/01/25 02:07:30;;;;;;;47.80;22.38;;;;;;;0.01;70.87;100671.31;5192971;28;20176;-82
2022/01/25 02:10:20;;;;;;;56.95;24.02;;;;;;;0.25;71.59;100672.47;5206501;28;20044;-80
2022/01/25 02:13:11;;;;;;;53.05;24.83;;;;;;;0.18;71.43;100674.34;5193724;28;20096;-81
2022/01/25 02:16:06;;;;;;;44.80;22.35;;;;;;;0.38;70.73;100666.03;5207695;28;20183;-81
2022/01/25 02:25:16;;;;;;;43.63;20.90;;;;;;;-0.09;70.76;100662.84;5219018;28;20048;-81
2022/01/25 02:28:06;;;;;;;50.70;22.08;;;;;;;-0.08;70.76;100666.28;5193370;28;20049;-79
2022/01/25 02:30:57;;;;;;;44.80;21.10;;;;;;;0.06;71.10;100679.84;5199111;28;20042;-80
2022/01/25 02:33:47;;;;;;;49.72;22.05;;;;;;;0.11;70.94;100677.16;5207066;28;20049;-82
2022/01/25 02:36:38;;;;;;;39.70;20.55;;;;;;;-0.12;70.51;100652.47;5207212;28;20416;-81
2022/01/25 02:39:29;;;;;;;48.25;22.42;;;;;;;-0.12;71.14;100669.88;5192925;28;20064;-81
2022/01/25 02:42:19;;;;;;;47.75;21.85;;;;;;;-0.16;70.54;100663.88;5204095;28;20666;-83
2022/01/25 02:45:15;;;;;;;52.30;23.02;;;;;;;-0.14;70.80;100653.41;5207374;28;20425;-82
2022/01/25 02:51:14;;;;;;;48.10;21.60;;;;;;;-0.12;71.20;100655.09;5202370;28;20056;-81
2022/01/25 02:54:07;;;;;;;51.75;23.52;;;;;;;-0.09;70.98;100657.63;5212020;28;20060;-82
2022/01/25 02:56:57;;;;;;;56.65;24.90;;;;;;;-0.01;70.97;100660.03;5219372;28;20068;-83
2022/01/25 02:59:48;;;;;;;47.15;22.13;;;;;;;0.03;70.23;100676.47;5217655;28;20077;-83
2022/01/25 03:02:38;;;;;;;51.55;22.90;;;;;;;-0.16;71.63;100656.06;5207915;28;20057;-84
2022/01/25 03:05:28;;;;;;;55.95;24.98;;;;;;;0.12;71.67;100671.88;5186248;28;20045;-81
2022/01/25 03:08:19;;;;;;;58.10;24.05;;;;;;;0.11;72.24;100651.94;5185503;28;20155;-82
2022/01/25 03:11:09;;;;;;;55.53;24.45;;;;;;;0.08;72.09;100657.22;5206281;28;20056;-81
2022/01/25 03:14:03;;;;;;;59.65;24.45;;;;;;;0.19;71.46;100656.94;5205833;28;20435;-82
2022/01/25 03:17:07;;;;;;;;;;;;;;;0.16;71.04;100668.31;5175389;28;20049;-81
2022/01/25 03:20:07;;;;;;;53.38;23.05;;;;;;;0.25;71.26;100651.59;5206597;28;19931;-81
2022/01/25 03:23:04;;;;;;;59.65;24.67;;;;;;;0.31;71.69;100646.22;5204917;28;20107;-83
2022/01/25 03:25:55;;;;;;;54.50;23.83;;;;;;;0.19;71.37;100647.38;5201561;28;20057;-81
2022/01/25 03:28:45;;;;;;;51.90;23.45;;;;;;;0.12;71.60;100664.06;5205392;28;20050;-82
2022/01/25 03:31:36;;;;;;;54.00;23.27;;;;;;;0.02;70.66;100636.50;5189197;28;20478;-83
2022/01/25 03:34:26;;;;;;;55.35;23.13;;;;;;;0.07;71.06;100639.00;5193149;28;20048;-82
2022/01/25 03:37:16;;;;;;;60.03;23.95;;;;;;;-0.04;70.91;100634.88;5205692;28;20088;-80
2022/01/25 03:40:08;;;;;;;52.55;23.73;;;;;;;0.01;70.88;100641.75;5202555;28;20530;-82
2022/01/25 03:42:59;;;;;;;52.53;23.70;;;;;;;-0.09;71.50;100638.53;5200029;28;20040;-82
2022/01/25 03:46:04;;;;;;;53.28;24.63;;;;;;;0.13;71.50;100644.94;5209320;28;20139;-84
2022/01/25 03:52:06;;;;;;;60.95;24.75;;;;;;;0.12;70.60;100617.13;5208198;28;20079;-81
2022/01/25 03:54:58;;;;;;;55.10;24.42;;;;;;;0.13;70.05;100642.31;5190923;28;20096;-82
2022/01/25 03:57:48;;;;;;;61.10;24.73;;;;;;;-0.04;70.39;100627.06;5200274;28;20040;-82
2022/01/25 04:00:39;;;;;;;54.33;23.80;;;;;;;-0.07;70.63;100640.16;5205202;28;20451;-82
2022/01/25 04:03:36;;;;;;;51.42;22.65;;;;;;;-0.14;70.09;100625.56;5204277;28;20051;-81
2022/01/25 04:06:31;;;;;;;56.13;23.60;;;;;;;-0.13;70.25;100639.47;5194475;28;20047;-81
2022/01/25 04:09:22;;;;;;;50.05;22.77;;;;;;;-0.26;70.25;100618.06;5209680;28;20069;-82
2022/01/25 04:12:13;;;;;;;54.20;23.90;;;;;;;-0.41;70.81;100587.97;5204756;28;20085;-80
2022/01/25 04:15:04;;;;;;;51.25;23.52;;;;;;;-0.26;71.54;100641.53;5204986;28;20072;-82
2022/01/25 04:18:03;;;;;;;46.35;22.00;;;;;;;-0.83;71.99;100608.03;5191188;28;20440;-81
2022/01/25 04:21:03;;;;;;;57.28;21.90;;;;;;;-0.39;71.69;100627.06;5200126;28;20111;-81
2022/01/25 04:27:02;;;;;;;52.10;22.05;;;;;;;-0.51;72.08;100620.34;5203162;28;20057;-80
2022/01/25 04:29:53;;;;;;;50.90;22.17;;;;;;;-0.30;70.74;100622.50;5199551;28;20183;-79
2022/01/25 04:32:49;;;;;;;50.95;20.95;;;;;;;-0.35;71.24;100621.72;5190303;28;20445;-80
2022/01/25 04:35:55;;;;;;;58.25;24.00;;;;;;;-0.33;70.99;100621.69;5200417;28;20103;-79
2022/01/25 04:51:40;;;;;;;45.47;22.17;;;;;;;-0.59;69.94;100624.91;5204583;28;20526;-79
2022/01/25 05:00:50;;;;;;;39.88;19.17;;;;;;;-0.86;69.95;100619.38;5189267;28;20057;-79
2022/01/25 05:04:21;;;;;;;43.15;19.25;;;;;;;-0.96;69.87;100604.81;5197992;28;20057;-79
2022/01/25 05:07:06;;;;;;;45.83;19.73;;;;;;;-0.82;70.42;100622.78;5197993;28;20044;-80
2022/01/25 05:09:57;;;;;;;44.30;19.38;;;;;;;-0.90;69.56;100620.31;5190927;28;20129;-80
2022/01/25 05:12:54;;;;;;;46.95;19.35;;;;;;;-0.99;69.17;100616.16;5189121;28;20132;-80
2022/01/25 05:16:06;;;;;;;45.38;20.08;;;;;;;-0.96;69.89;100618.72;5198469;28;20187;-79
2022/01/25 05:19:19;;;;;;;45.45;20.63;;;;;;;-0.89;70.19;100631.59;5187840;28;20163;-79
2022/01/25 05:25:02;;;;;;;43.35;21.27;;;;;;;-1.03;70.46;100639.69;5204176;28;20072;-80
2022/01/25 05:27:53;;;;;;;40.95;20.27;;;;;;;-1.10;69.41;100636.34;5204375;28;20044;-79
2022/01/25 05:30:42;;;;;;;45.95;20.48;;;;;;;-1.28;69.86;100595.06;5186115;28;20108;-80
2022/01/25 05:33:32;;;;;;;47.03;20.42;;;;;;;-1.07;70.10;100627.63;5200896;28;20053;-80
2022/01/25 05:36:22;;;;;;;47.67;20.50;;;;;;;-1.11;70.33;100619.00;5190343;28;20034;-80
2022/01/25 05:39:18;;;;;;;55.97;23.30;;;;;;;-0.84;70.53;100637.56;5204229;28;20053;-80
2022/01/25 05:45:39;;;;;;;53.75;22.75;;;;;;;-0.81;70.79;100637.50;5206134;28;20056;-80
2022/01/25 05:48:30;;;;;;;61.75;24.63;;;;;;;-0.84;70.91;100641.03;5206866;28;20056;-79
2022/01/25 05:51:20;;;;;;;55.00;23.65;;;;;;;-0.97;69.94;100634.34;5202023;28;20072;-79
2022/01/25 05:54:12;;;;;;;53.60;23.08;;;;;;;-1.13;69.82;100628.59;5201723;28;20056;-79
2022/01/25 05:57:02;;;;;;;49.22;21.63;;;;;;;-1.11;69.72;100647.66;5185180;28;20146;-80
2022/01/25 05:59:53;;;;;;;56.88;24.23;;;;;;;-1.05;70.69;100644.94;5207555;28;20052;-79
2022/01/25 06:02:43;;;;;;;63.42;26.08;;;;;;;-0.83;70.21;100652.28;5204559;28;20601;-80
2022/01/25 06:05:34;;;;;;;58.58;25.27;;;;;;;-0.80;69.81;100658.28;5185777;28;20052;-81
2022/01/25 06:08:24;;;;;;;58.95;24.95;;;;;;;-0.88;70.02;100652.41;5207160;28;20054;-80
2022/01/25 06:11:20;;;;;;;57.35;23.73;;;;;;;-1.14;70.11;100652.06;5207250;28;20086;-80
2022/01/25 06:14:10;;;;;;;56.63;23.75;;;;;;;-1.34;69.97;100632.47;5193379;28;20045;-81
2022/01/25 06:17:00;;;;;;;57.47;23.10;;;;;;;-1.19;70.50;100659.97;5199682;28;20065;-81
2022/01/25 06:19:51;;;;;;;62.85;24.55;;;;;;;-1.17;71.38;100649.50;5203257;28;20045;-81
2022/01/25 06:22:42;;;;;;;62.00;24.65;;;;;;;-0.99;70.33;100668.25;5193222;28;20054;-80
2022/01/25 06:25:34;;;;;;;59.03;24.30;;;;;;;-1.39;70.07;100633.44;5199604;28;20049;-80
2022/01/25 06:28:24;;;;;;;54.95;23.77;;;;;;;-1.37;70.48;100647.28;5195613;28;20084;-81
2022/01/25 06:31:17;;;;;;;64.10;24.55;;;;;;;-1.37;69.69;100655.94;5200981;28;20095;-81
2022/01/25 06:34:07;;;;;;;54.83;24.02;;;;;;;-1.33;69.67;100655.00;5200760;28;20121;-79
2022/01/25 06:36:57;;;;;;;62.33;24.38;;;;;;;-1.28;70.21;100678.34;5216700;28;20407;-80
2022/01/25 06:39:50;;;;;;;55.92;23.33;;;;;;;-1.59;69.38;100624.28;5194702;28;20179;-80
2022/01/25 06:42:40;;;;;;;58.28;23.80;;;;;;;-1.30;69.22;100693.13;5200252;28;20057;-79
2022/01/25 06:45:31;;;;;;;57.80;24.73;;;;;;;-1.44;69.73;100669.94;5207238;28;20420;-80
2022/01/25 06:48:22;;;;;;;61.38;24.38;;;;;;;-1.29;69.38;100694.81;5208008;28;20057;-81
2022/01/25 06:51:13;;;;;;;58.95;24.13;;;;;;;-1.39;71.01;100680.25;5208266;28;20068;-81
2022/01/25 06:54:03;;;;;;;54.10;24.00;;;;;;;-1.19;70.50;100692.06;5210557;28;20618;-82
2022/01/25 06:56:53;;;;;;;60.90;27.70;;;;;;;-1.26;70.34;100666.16;5209457;28;20131;-82
2022/01/25 06:59:46;;;;;;;67.75;27.08;;;;;;;-1.11;69.67;100685.84;5196109;28;20509;-81
2022/01/25 07:02:36;;;;;;;63.70;27.27;;;;;;;-1.11;70.17;100691.03;5210294;28;20053;-80
2022/01/25 07:05:27;;;;;;;63.28;26.63;;;;;;;-1.08;70.32;100688.38;5209352;28;20048;-80
2022/01/25 07:08:18;;;;;;;69.07;27.27;;;;;;;-1.13;69.95;100691.06;5206482;28;20048;-81
2022/01/25 07:11:13;;;;;;;62.40;25.38;;;;;;;-1.28;70.35;100686.16;5205186;28;20096;-81
2022/01/25 07:14:03;;;;;;;57.45;25.27;;;;;;;-1.22;69.27;100707.72;5206085;28;20127;-81
2022/01/25 07:16:54;;;;;;;59.55;26.23;;;;;;;-1.10;69.36;100693.59;5207723;28;20060;-81
2022/01/25 07:19:45;;;;;;;64.00;25.65;;;;;;;-1.09;69.66;100708.38;5207598;28;20551;-81
2022/01/25 07:22:37;;;;;;;60.20;26.25;;;;;;;-1.09;69.36;100695.34;5210753;28;20105;-82
2022/01/25 07:25:27;;;;;;;62.83;26.35;;;;;;;-1.10;69.37;100687.53;5178653;28;20037;-80
2022/01/25 07:28:18;;;;;;;60.47;25.38;;;;;;;-1.20;70.43;100692.91;5203736;28;20042;-82
2022/01/25 07:31:08;;;;;;;52.58;24.50;;;;;;;-1.29;69.74;100690.50;5186322;28;20064;-81
2022/01/25 07:33:59;;;;;;;67.80;28.92;;;;;;;-1.09;69.17;100697.94;5209095;28;20052;-81
2022/01/25 07:36:58;;;;;;;61.33;27.17;;;;;;;-1.24;69.35;100693.00;5209501;28;20049;-81
2022/01/25 07:39:51;;;;;;;63.07;25.50;;;;;;;-1.17;69.00;100691.16;5200713;28;20129;-80
2022/01/25 07:42:42;;;;;;;77.93;31.00;;;;;;;-1.12;70.11;100698.00;5207908;28;20124;-81
2022/01/25 07:45:54;;;;;;;72.28;28.77;;;;;;;-1.12;69.65;100682.38;5193633;28;20040;-81
2022/01/25 07:48:54;;;;;;;67.35;27.45;;;;;;;-1.12;69.18;100698.00;5203726;28;20092;-81
2022/01/25 07:51:44;;;;;;;67.22;27.35;;;;;;;-1.07;69.75;100696.16;5204392;28;20045;-81
2022/01/25 07:54:35;;;;;;;63.33;26.98;;;;;;;-1.08;70.63;100707.47;5194513;28;20134;-81
2022/01/25 07:57:25;;;;;;;61.75;27.20;;;;;;;-0.96;70.46;100698.53;5210346;28;20048;-81
2022/01/25 08:00:18;;;;;;;68.90;29.02;;;;;;;-0.82;70.03;100696.56;5216592;28;20099;-81
2022/01/25 08:03:08;;;;;;;66.20;28.67;;;;;;;-0.71;70.21;100711.97;5192123;28;20671;-83
2022/01/25 08:06:07;;;;;;;65.07;29.42;;;;;;;-0.58;70.21;100726.44;5203971;28;20506;-82
2022/01/25 08:09:14;;;;;;;64.40;27.67;;;;;;;-0.57;70.07;100704.72;5192893;28;20072;-82
2022/01/25 08:12:13;;;;;;;68.50;28.30;;;;;;;-0.48;71.14;100696.72;5200063;28;20139;-80
2022/01/25 08:15:30;;;;;;;67.18;28.25;;;;;;;-0.32;70.78;100717.25;5169267;28;20083;-81
2022/01/25 08:18:27;;;;;;;68.43;30.40;;;;;;;-0.37;69.99;100693.88;5204866;28;20092;-81
2022/01/25 08:21:32;;;;;;;77.25;32.20;;;;;;;-0.48;71.32;100683.69;5183627;28;20087;-81
2022/01/25 08:24:51;;;;;;;75.80;31.52;;;;;;;-0.25;70.26;100692.75;5204184;28;20053;-82
2022/01/25 08:27:49;;;;;;;67.95;29.08;;;;;;;-0.17;70.25;100698.63;5199819;28;20223;-80
2022/01/25 08:30:53;;;;;;;62.17;29.25;;;;;;;-0.04;70.17;100696.63;5206190;28;20044;-80
2022/01/25 08:34:02;;;;;;;67.88;30.65;;;;;;;0.21;70.69;100713.41;5204866;28;20052;-80
2022/01/25 08:37:10;;;;;;;68.32;30.77;;;;;;;0.58;69.94;100711.66;5209447;28;20076;-81
2022/01/25 08:40:08;;;;;;;68.40;30.13;;;;;;;0.84;68.88;100714.47;5208663;28;20558;-81
2022/01/25 08:43:13;;;;;;;61.67;29.58;;;;;;;0.89;69.33;100709.97;5204630;28;20279;-80
2022/01/25 08:46:29;;;;;;;65.47;30.65;;;;;;;0.74;70.34;100706.91;5204686;28;20052;-80
2022/01/25 08:49:22;;;;;;;63.67;28.88;;;;;;;1.39;68.16;100727.75;5186113;28;20696;-81
2022/01/25 08:52:29;;;;;;;60.45;27.65;;;;;;;1.42;67.92;100701.53;5188357;28;20068;-81
2022/01/25 08:55:33;;;;;;;60.90;28.42;;;;;;;1.16;69.51;100684.00;5179142;28;20073;-80
2022/01/25 08:58:33;;;;;;;59.83;26.85;;;;;;;1.61;68.00;100707.09;5200621;28;20056;-81
2022/01/25 09:01:23;;;;;;;58.78;27.85;;;;;;;1.84;67.81;100711.63;5191077;28;20072;-81
2022/01/25 09:04:14;;;;;;;55.47;27.48;;;;;;;1.82;67.41;100718.66;5198553;28;20060;-81
2022/01/25 09:07:04;;;;;;;56.40;28.80;;;;;;;1.42;68.36;100696.31;5188864;28;20072;-80
2022/01/25 09:09:55;;;;;;;58.63;28.10;;;;;;;1.65;68.30;100719.16;5189794;28;20436;-80
2022/01/25 09:12:46;;;;;;;63.40;28.98;;;;;;;1.87;67.22;100699.31;5190613;28;20131;-80
2022/01/25 09:15:36;;;;;;;61.17;27.63;;;;;;;2.13;66.92;100717.75;5210515;28;20049;-81
2022/01/25 09:18:27;;;;;;;61.50;29.17;;;;;;;2.09;66.94;100727.44;5211749;28;20038;-80
2022/01/25 09:21:17;;;;;;;60.25;28.00;;;;;;;2.08;67.06;100715.25;5190384;28;20060;-80
2022/01/25 09:24:09;;;;;;;57.25;26.77;;;;;;;2.01;67.66;100708.50;5209140;28;20160;-81
2022/01/25 09:27:02;;;;;;;58.45;27.27;;;;;;;2.44;66.21;100699.28;5208669;28;20591;-81
2022/01/25 09:29:53;;;;;;;53.88;24.83;;;;;;;3.32;64.85;100724.19;5189013;28;20064;-80
2022/01/25 09:32:43;;;;;;;52.25;25.83;;;;;;;3.33;63.54;100697.03;5188301;28;20103;-81
2022/01/25 09:35:34;;;;;;;51.67;26.10;;;;;;;2.88;64.97;100715.25;5201188;28;20561;-80
2022/01/25 09:38:25;;;;;;;52.85;25.38;;;;;;;2.71;65.80;100703.59;5184752;28;20048;-81
2022/01/25 09:41:15;;;;;;;56.35;27.52;;;;;;;2.75;66.79;100709.59;5199890;28;20053;-80
2022/01/25 09:44:05;;;;;;;60.72;28.35;;;;;;;2.35;66.59;100693.44;5218042;28;20082;-80
2022/01/25 09:46:56;;;;;;;64.78;30.13;;;;;;;2.52;67.01;100705.97;5207247;28;20045;-80
2022/01/25 09:49:46;;;;;;;63.60;30.10;;;;;;;2.14;68.12;100701.97;5204003;28;20044;-81
2022/01/25 09:52:40;;;;;;;64.15;30.17;;;;;;;1.77;69.53;100666.50;5226470;28;20621;-80
2022/01/25 09:55:35;;;;;;;63.65;30.10;;;;;;;2.56;67.59;100691.03;5225980;28;20084;-81
2022/01/25 09:58:25;;;;;;;64.93;29.67;;;;;;;2.07;69.23;100703.09;5220201;28;20068;-81
2022/01/25 10:01:24;;;;;;;67.45;33.00;;;;;;;2.32;68.83;100701.41;5212595;28;20076;-81
2022/01/25 10:04:35;;;;;;;66.22;31.65;;;;;;;2.54;67.95;100712.00;5210682;28;20560;-81
2022/01/25 10:07:29;;;;;;;63.20;31.60;;;;;;;2.50;68.58;100705.16;5205196;28;20183;-81
2022/01/25 10:10:19;;;;;;;70.70;32.92;;;;;;;2.56;68.45;100722.44;5211047;28;20087;-81
2022/01/25 10:13:14;;;;;;;69.63;30.60;;;;;;;2.31;69.96;100715.38;5205869;28;20064;-80
2022/01/25 10:16:10;;;;;;;65.47;30.83;;;;;;;2.37;68.37;100716.94;5210605;28;20179;-80
2022/01/25 10:19:01;;;;;;;69.75;33.15;;;;;;;2.44;70.07;100713.22;5203022;28;20614;-81
2022/01/25 10:21:52;;;;;;;67.75;31.20;;;;;;;2.45;69.58;100722.81;5209603;28;20447;-80
2022/01/25 10:24:42;;;;;;;68.72;33.10;;;;;;;2.72;67.49;100704.47;5208079;28;20056;-80
2022/01/25 10:28:00;;;;;;;63.28;31.45;;;;;;;2.77;68.06;100726.09;5206535;28;20096;-80
2022/01/25 10:30:56;;;;;;;69.95;31.60;;;;;;;2.68;67.06;100708.94;5205817;28;20479;-80
2022/01/25 10:33:53;;;;;;;65.70;32.05;;;;;;;2.54;68.02;100685.81;5193059;28;20447;-80
2022/01/25 10:37:11;;;;;;;74.32;33.97;;;;;;;2.94;67.88;100717.66;5202713;28;20447;-80
2022/01/25 10:40:02;;;;;;;69.50;33.83;;;;;;;3.08;67.70;100720.69;5188094;28;20051;-80
2022/01/25 10:42:52;;;;;;;82.30;34.85;;;;;;;2.53;68.16;100705.06;5209379;28;20059;-79
2022/01/25 10:45:42;;;;;;;77.90;36.80;;;;;;;2.96;68.07;100718.47;5195019;28;20053;-79
2022/01/25 10:48:34;;;;;;;97.55;38.90;;;;;;;2.83;68.56;100715.41;5201682;28;20042;-79
2022/01/25 10:51:26;;;;;;;97.30;39.88;;;;;;;2.40;70.17;100708.16;5190208;28;20060;-78
2022/01/25 10:54:24;;;;;;;92.88;39.53;;;;;;;1.42;73.61;100712.00;5201971;28;20060;-79
2022/01/25 10:57:26;;;;;;;87.63;38.90;;;;;;;1.63;74.35;100668.69;5191558;28;20597;-79
2022/01/25 11:00:40;;;;;;;87.43;39.38;;;;;;;2.54;70.51;100700.69;5206474;28;20049;-79
2022/01/25 11:03:42;;;;;;;88.80;40.00;;;;;;;2.77;69.22;100666.69;5203973;28;20137;-80
2022/01/25 11:06:33;;;;;;;98.13;40.35;;;;;;;3.37;67.23;100693.38;5188099;28;20107;-79
2022/01/25 11:09:25;;;;;;;83.65;39.67;;;;;;;3.11;68.00;100649.78;5204475;28;20045;-79
2022/01/25 11:12:18;;;;;;;86.03;37.80;;;;;;;3.32;68.81;100678.75;5211121;28;20520;-79
2022/01/25 11:15:09;;;;;;;92.82;40.38;;;;;;;3.36;67.57;100696.06;5206754;28;20053;-79
2022/01/25 11:17:59;;;;;;;88.80;38.40;;;;;;;3.34;67.31;100682.16;5206833;28;20407;-79
2022/01/25 11:20:50;;;;;;;84.90;38.50;;;;;;;2.47;69.67;100673.84;5205585;28;20081;-80
2022/01/25 11:23:42;;;;;;;87.97;38.85;;;;;;;2.72;70.68;100689.59;5199118;28;20180;-79
2022/01/25 11:26:32;;;;;;;94.13;39.67;;;;;;;2.71;70.17;100676.53;5199619;28;20149;-79
2022/01/25 11:29:24;;;;;;;96.45;40.58;;;;;;;3.42;68.48;100669.63;5194880;28;20069;-79
2022/01/25 11:32:19;;;;;;;90.72;40.47;;;;;;;3.27;68.83;100658.78;5190956;28;20175;-79
2022/01/25 11:35:12;;;;;;;89.38;39.72;;;;;;;3.84;67.00;100685.50;5207605;28;20685;-79
2022/01/25 11:38:04;;;;;;;85.72;39.58;;;;;;;3.96;67.03;100686.78;5195521;28;20042;-81
2022/01/25 11:40:55;;;;;;;92.75;39.45;;;;;;;3.06;70.55;100693.66;5194072;28;20045;-81
2022/01/25 11:44:04;;;;;;;83.82;38.63;;;;;;;3.70;68.49;100691.25;5200932;28;20096;-81
2022/01/25 11:47:10;;;;;;;85.00;39.85;;;;;;;3.65;67.31;100664.38;5189848;28;20057;-82
2022/01/25 11:50:06;;;;;;;87.00;38.92;;;;;;;3.56;68.97;100683.06;5184395;28;20050;-81
2022/01/25 11:53:06;;;;;;;93.18;40.85;;;;;;;3.82;67.85;100682.06;5179013;28;20053;-82
2022/01/25 11:55:57;;;;;;;90.05;39.70;;;;;;;3.43;69.12;100668.72;5189510;28;20048;-82
2022/01/25 11:58:55;;;;;;;88.38;40.63;;;;;;;3.70;69.06;100669.44;5192903;28;20068;-82
2022/01/25 12:01:49;;;;;;;90.10;41.42;;;;;;;3.88;67.86;100689.72;5210698;28;20048;-82
2022/01/25 12:04:44;;;;;;;94.65;41.85;;;;;;;4.27;67.28;100675.03;5200468;28;20124;-82
2022/01/25 12:07:40;;;;;;;94.78;43.70;;;;;;;4.30;67.51;100680.16;5204634;28;20072;-82
2022/01/25 12:10:44;;;;;;;91.15;40.88;;;;;;;3.63;68.06;100670.59;5203498;28;20116;-82
2022/01/25 12:13:34;;;;;;;90.10;40.55;;;;;;;3.08;70.17;100665.63;5210845;28;20057;-82
2022/01/25 12:16:27;;;;;;;88.70;40.65;;;;;;;4.01;68.21;100682.22;5200846;28;20052;-82
2022/01/25 12:19:20;;;;;;;85.03;41.78;;;;;;;3.32;69.47;100668.28;5212397;28;20681;-82
2022/01/25 12:22:15;;;;;;;86.88;40.83;;;;;;;3.12;70.39;100654.13;5223647;28;20068;-82
2022/01/25 12:28:08;;;;;;;93.82;42.72;;;;;;;4.42;66.47;100656.88;5221063;28;20080;-82
2022/01/25 12:31:00;;;;;;;92.78;42.53;;;;;;;4.74;65.79;100665.19;5206691;28;20525;-82
2022/01/25 12:33:50;;;;;;;94.60;42.05;;;;;;;4.48;66.00;100653.16;5189560;28;20060;-83
2022/01/25 12:36:43;;;;;;;90.13;42.53;;;;;;;3.93;68.14;100664.13;5188976;28;20049;-81
2022/01/25 12:39:35;;;;;;;99.85;45.08;;;;;;;4.30;66.62;100651.28;5190438;28;20424;-82
2022/01/25 12:42:32;;;;;;;96.78;43.15;;;;;;;3.64;69.54;100652.19;5196636;28;20087;-82
2022/01/25 12:45:31;;;;;;;97.15;43.90;;;;;;;4.11;68.12;100633.69;5202896;28;20063;-83
2022/01/25 12:48:27;;;;;;;96.45;44.33;;;;;;;4.16;67.63;100610.72;5202689;28;20443;-81
2022/01/25 12:51:20;;;;;;;87.00;43.78;;;;;;;4.08;67.28;100654.81;5202785;28;20138;-81
2022/01/25 12:54:13;;;;;;;71.60;33.35;;;;;;;4.23;67.15;100633.16;5202831;28;20060;-81
2022/01/25 12:57:08;;;;;;;93.70;43.08;;;;;;;4.31;66.33;100630.22;5188737;28;20051;-82
2022/01/25 12:59:59;;;;;;;96.38;44.35;;;;;;;3.91;67.31;100652.84;5204103;28;20163;-83
2022/01/25 13:02:49;;;;;;;97.32;44.10;;;;;;;3.93;67.67;100634.41;5204802;28;20183;-82
2022/01/25 13:05:48;;;;;;;104.05;47.53;;;;;;;3.40;68.67;100650.47;5204504;28;20100;-82
2022/01/25 13:08:51;;;;;;;104.97;47.50;;;;;;;3.06;70.54;100638.63;5201662;28;20563;-82
2022/01/25 13:15:15;;;;;;;106.30;47.05;;;;;;;3.43;70.89;100658.22;5205292;28;20056;-82
2022/01/25 13:18:11;;;;;;;117.75;47.53;;;;;;;3.63;69.47;100652.22;5207081;28;20535;-82
2022/01/25 13:21:05;;;;;;;116.53;48.92;;;;;;;3.28;70.65;100657.91;5186580;28;20045;-83
2022/01/25 13:23:55;;;;;;;112.90;46.10;;;;;;;3.00;70.73;100636.22;5202891;28;20060;-82
2022/01/25 13:26:55;;;;;;;113.22;45.47;;;;;;;2.95;70.54;100643.41;5183185;28;20439;-82
2022/01/25 13:33:01;;;;;;;108.45;45.13;;;;;;;2.53;72.41;100664.94;5209085;28;20079;-82
2022/01/25 13:35:55;;;;;;;110.82;46.35;;;;;;;2.55;73.00;100650.00;5205342;28;20049;-82
2022/01/25 13:38:48;;;;;;;113.50;44.17;;;;;;;2.37;72.88;100656.75;5206538;28;20417;-82
2022/01/25 13:41:49;;;;;;;117.53;45.43;;;;;;;1.82;74.17;100635.84;5187712;28;20057;-82
2022/01/25 13:48:07;;;;;;;120.25;46.05;;;;;;;2.77;71.74;100644.91;5210218;28;20120;-81
2022/01/25 13:51:01;;;;;;;118.80;45.25;;;;;;;3.24;70.35;100632.69;5225813;28;20051;-82
2022/01/25 13:53:57;;;;;;;129.27;48.03;;;;;;;3.34;70.53;100629.72;5203442;28;20052;-83
2022/01/25 13:56:47;;;;;;;124.57;47.30;;;;;;;3.62;69.46;100646.13;5212914;28;20073;-82
2022/01/25 13:59:38;;;;;;;117.47;46.72;;;;;;;3.43;70.59;100630.22;5213819;28;20409;-82
2022/01/25 14:02:29;;;;;;;115.32;46.63;;;;;;;3.44;69.44;100638.94;5202947;28;20047;-82
2022/01/25 14:05:20;;;;;;;115.25;46.05;;;;;;;3.25;70.60;100639.66;5207911;28;20136;-83
2022/01/25 14:08:10;;;;;;;110.32;45.08;;;;;;;3.32;69.43;100607.97;5192713;28;20067;-82
2022/01/25 14:11:03;;;;;;;111.47;41.67;;;;;;;2.40;71.83;100640.94;5194233;28;20048;-83
2022/01/25 14:23:33;;;;;;;122.82;47.55;;;;;;;3.61;69.21;100594.59;5205354;28;20111;-82
2022/01/25 14:26:28;;;;;;;149.60;55.45;;;;;;;3.72;68.31;100616.00;5211304;28;20053;-81
2022/01/25 14:29:23;;;;;;;125.55;48.63;;;;;;;3.88;68.49;100625.88;5206136;28;20450;-82
2022/01/25 14:32:14;;;;;;;123.95;47.92;;;;;;;3.67;68.31;100611.84;5205772;28;20411;-82
2022/01/25 14:35:11;;;;;;;115.55;45.30;;;;;;;3.80;68.20;100628.78;5201745;28;20500;-82
2022/01/25 14:38:01;;;;;;;115.65;47.83;;;;;;;3.94;67.85;100617.75;5205961;28;20056;-80
2022/01/25 14:40:59;;;;;;;122.18;47.25;;;;;;;3.09;69.80;100616.69;5207425;28;20073;-80
2022/01/25 14:43:57;;;;;;;133.55;52.20;;;;;;;3.72;69.26;100621.25;5207579;28;20120;-80
2022/01/25 14:46:52;;;;;;;123.57;47.53;;;;;;;3.83;67.65;100630.44;5189135;28;20095;-79
2022/01/25 14:49:47;;;;;;;122.32;49.28;;;;;;;3.42;69.32;100614.56;5206318;28;20037;-80
2022/01/25 14:52:37;;;;;;;122.78;49.97;;;;;;;3.79;67.52;100600.84;5206342;28;20100;-80
2022/01/25 14:55:29;;;;;;;125.07;49.72;;;;;;;3.58;68.18;100602.56;5199515;28;20060;-80
2022/01/25 15:01:11;;;;;;;119.80;45.83;;;;;;;4.05;67.52;100615.56;5207086;28;20050;-79
2022/01/25 15:04:02;;;;;;;132.23;50.00;;;;;;;3.76;68.71;100586.09;5206957;28;20060;-80
2022/01/25 15:06:53;;;;;;;137.20;51.67;;;;;;;4.02;67.65;100618.31;5206243;28;20069;-80
2022/01/25 15:09:53;;;;;;;123.95;46.63;;;;;;;4.13;67.28;100615.22;5203775;28;20057;-80
2022/01/25 15:12:47;;;;;;;123.00;47.20;;;;;;;3.84;68.04;100626.91;5193024;28;20087;-80